createdAt,value
2023-04-16T00:01:01.029Z,9.42
2023-04-16T00:02:04.137Z,9.44
2023-04-16T00:03:07.322Z,9.42
2023-04-16T00:04:10.568Z,9.40
2023-04-16T00:05:13.546Z,9.40
2023-04-16T00:06:16.424Z,9.39
2023-04-16T00:07:19.264Z,9.36
2023-04-16T00:08:22.094Z,9.35
2023-04-16T00:09:24.964Z,9.33
2023-04-16T00:10:27.868Z,9.35
2023-04-16T00:11:30.695Z,9.29
2023-04-16T00:12:33.572Z,9.28
2023-04-16T00:13:36.854Z,9.29
2023-04-16T00:14:39.734Z,9.30
2023-04-16T00:15:42.622Z,9.26
2023-04-16T00:16:45.577Z,9.26
2023-04-16T00:17:48.479Z,9.30
2023-04-16T00:18:51.439Z,9.28
2023-04-16T00:19:54.469Z,9.29
2023-04-16T00:20:57.363Z,9.26
2023-04-16T00:22:00.175Z,9.25
2023-04-16T00:23:03.020Z,9.20
2023-04-16T00:24:06.082Z,9.18
2023-04-16T00:25:09.190Z,9.18
2023-04-16T00:26:12.427Z,9.18
2023-04-16T00:27:15.253Z,9.15
2023-04-16T00:28:18.205Z,9.15
2023-04-16T00:29:21.113Z,9.14
2023-04-16T00:30:24.187Z,9.12
2023-04-16T00:31:31.424Z,9.12
2023-04-16T00:32:34.351Z,9.12
2023-04-16T00:33:37.274Z,9.12
2023-04-16T00:34:40.092Z,9.12
2023-04-16T00:35:42.977Z,9.12
2023-04-16T00:36:45.800Z,9.12
2023-04-16T00:37:48.661Z,9.08
2023-04-16T00:38:52.761Z,9.09
2023-04-16T00:39:55.618Z,9.07
2023-04-16T00:41:01.358Z,9.08
2023-04-16T00:42:04.346Z,9.07
2023-04-16T00:43:07.416Z,9.07
2023-04-16T00:44:10.371Z,9.05
2023-04-16T00:45:13.277Z,9.02
2023-04-16T00:46:17.885Z,9.05
2023-04-16T00:47:21.796Z,9.02
2023-04-16T00:48:25.145Z,9.01
2023-04-16T00:49:28.359Z,9.01
2023-04-16T00:50:31.314Z,8.99
2023-04-16T00:51:34.451Z,8.98
2023-04-16T00:52:37.490Z,8.95
2023-04-16T00:53:40.486Z,8.98
2023-04-16T00:54:43.480Z,8.95
2023-04-16T00:55:47.239Z,8.95
2023-04-16T00:56:50.415Z,8.91
2023-04-16T00:57:53.236Z,8.91
2023-04-16T00:58:57.684Z,8.88
2023-04-16T01:00:00.586Z,8.85
2023-04-16T01:01:04.254Z,8.85
2023-04-16T01:02:07.268Z,8.81
2023-04-16T01:04:13.689Z,8.78
2023-04-16T01:05:16.805Z,8.78
2023-04-16T01:06:20.110Z,8.75
2023-04-16T01:07:23.060Z,8.72
2023-04-16T01:08:26.334Z,8.70
2023-04-16T01:09:29.209Z,8.71
2023-04-16T01:10:32.209Z,8.71
2023-04-16T01:11:35.076Z,8.71
2023-04-16T01:12:37.868Z,8.68
2023-04-16T01:13:40.825Z,8.71
2023-04-16T01:14:43.756Z,8.71
2023-04-16T01:15:46.655Z,8.71
2023-04-16T01:16:49.555Z,8.70
2023-04-16T01:17:52.449Z,8.70
2023-04-16T01:18:55.756Z,8.70
2023-04-16T01:20:02.076Z,8.68
2023-04-16T01:21:05.940Z,8.68
2023-04-16T01:22:08.788Z,8.61
2023-04-16T01:23:12.795Z,8.60
2023-04-16T01:24:15.632Z,8.61
2023-04-16T01:25:18.529Z,8.61
2023-04-16T01:26:21.353Z,8.63
2023-04-16T01:27:24.213Z,8.61
2023-04-16T01:28:27.232Z,8.58
2023-04-16T01:29:30.105Z,8.56
2023-04-16T01:30:33.052Z,8.57
2023-04-16T01:31:35.925Z,8.57
2023-04-16T01:32:38.977Z,8.58
2023-04-16T01:33:41.968Z,8.54
2023-04-16T01:34:44.844Z,8.54
2023-04-16T01:35:47.677Z,8.54
2023-04-16T01:36:50.495Z,8.54
2023-04-16T01:37:54.950Z,8.60
2023-04-16T01:38:57.986Z,8.60
2023-04-16T01:40:00.997Z,8.57
2023-04-16T01:41:03.865Z,8.57
2023-04-16T01:42:06.815Z,8.60
2023-04-16T01:43:09.780Z,8.57
2023-04-16T01:44:12.730Z,8.60
2023-04-16T01:45:15.556Z,8.58
2023-04-16T01:46:33.635Z,8.57
2023-04-16T01:47:36.531Z,8.57
2023-04-16T01:48:39.379Z,8.60
2023-04-16T01:49:42.479Z,8.57
2023-04-16T01:50:45.402Z,8.58
2023-04-16T01:51:48.413Z,8.58
2023-04-16T01:52:51.270Z,8.58
2023-04-16T01:53:54.323Z,8.56
2023-04-16T01:54:57.302Z,8.56
2023-04-16T01:56:00.155Z,8.57
2023-04-16T01:57:03.177Z,8.54
2023-04-16T01:58:06.035Z,8.54
2023-04-16T01:59:09.219Z,8.54
2023-04-16T02:00:12.655Z,8.53
2023-04-16T02:01:15.750Z,8.50
2023-04-16T02:02:18.911Z,8.50
2023-04-16T02:03:21.978Z,8.50
2023-04-16T02:04:24.873Z,8.49
2023-04-16T02:05:27.744Z,8.51
2023-04-16T02:06:30.620Z,8.51
2023-04-16T02:07:33.474Z,8.50
2023-04-16T02:08:37.362Z,8.49
2023-04-16T02:09:41.578Z,8.53
2023-04-16T02:10:46.832Z,8.47
2023-04-16T02:11:49.730Z,8.47
2023-04-16T02:12:52.571Z,8.49
2023-04-16T02:13:55.440Z,8.51
2023-04-16T02:14:58.253Z,8.49
2023-04-16T02:16:01.225Z,8.47
2023-04-16T02:17:04.257Z,8.47
2023-04-16T02:18:07.145Z,8.46
2023-04-16T02:19:10.251Z,8.46
2023-04-16T02:20:13.655Z,8.47
2023-04-16T02:21:16.530Z,8.47
2023-04-16T02:22:19.389Z,8.41
2023-04-16T02:23:22.234Z,8.41
2023-04-16T02:24:25.048Z,8.43
2023-04-16T02:25:28.052Z,8.41
2023-04-16T02:26:31.054Z,8.36
2023-04-16T02:27:33.897Z,8.39
2023-04-16T02:28:36.710Z,8.34
2023-04-16T02:29:39.595Z,8.32
2023-04-16T02:30:43.088Z,8.25
2023-04-16T02:31:46.086Z,8.25
2023-04-16T02:32:49.072Z,8.25
2023-04-16T02:33:52.069Z,8.23
2023-04-16T02:34:54.959Z,8.26
2023-04-16T02:35:57.773Z,8.26
2023-04-16T02:37:00.678Z,8.25
2023-04-16T02:38:04.662Z,8.26
2023-04-16T02:39:07.839Z,8.29
2023-04-16T02:40:11.872Z,8.32
2023-04-16T02:41:14.736Z,8.29
2023-04-16T02:42:17.817Z,8.29
2023-04-16T02:43:20.710Z,8.29
2023-04-16T02:44:23.628Z,8.28
2023-04-16T02:45:26.683Z,8.29
2023-04-16T02:46:30.294Z,8.29
2023-04-16T02:47:33.693Z,8.23
2023-04-16T02:48:36.911Z,8.22
2023-04-16T02:49:39.755Z,8.23
2023-04-16T02:50:42.600Z,8.23
2023-04-16T02:51:45.509Z,8.23
2023-04-16T02:52:48.424Z,8.25
2023-04-16T02:53:51.308Z,8.25
2023-04-16T02:54:54.180Z,8.29
2023-04-16T02:55:57.371Z,8.26
2023-04-16T02:57:00.200Z,8.26
2023-04-16T02:58:03.253Z,8.28
2023-04-16T02:59:06.471Z,8.33
2023-04-16T03:00:10.071Z,8.33
2023-04-16T03:01:13.089Z,8.26
2023-04-16T03:02:15.990Z,8.29
2023-04-16T03:03:19.360Z,8.28
2023-04-16T03:04:22.514Z,8.28
2023-04-16T03:05:25.396Z,8.29
2023-04-16T03:06:28.365Z,8.26
2023-04-16T03:07:31.461Z,8.29
2023-04-16T03:08:34.315Z,8.29
2023-04-16T03:09:37.171Z,8.29
2023-04-16T03:10:40.045Z,8.28
2023-04-16T03:11:42.863Z,8.26
2023-04-16T03:12:45.762Z,8.29
2023-04-16T03:13:48.817Z,8.29
2023-04-16T03:14:54.572Z,8.25
2023-04-16T03:15:57.517Z,8.28
2023-04-16T03:17:00.398Z,8.23
2023-04-16T03:18:03.676Z,8.20
2023-04-16T03:19:06.961Z,8.22
2023-04-16T03:20:11.299Z,8.22
2023-04-16T03:21:14.125Z,8.22
2023-04-16T03:22:16.990Z,8.22
2023-04-16T03:23:19.975Z,8.19
2023-04-16T03:24:23.010Z,8.19
2023-04-16T03:25:25.894Z,8.16
2023-04-16T03:26:28.711Z,8.16
2023-04-16T03:27:31.666Z,8.13
2023-04-16T03:28:34.597Z,8.13
2023-04-16T03:29:40.489Z,8.09
2023-04-16T03:30:43.467Z,8.07
2023-04-16T03:31:46.293Z,8.07
2023-04-16T03:32:50.719Z,8.07
2023-04-16T03:33:54.014Z,8.09
2023-04-16T03:34:56.918Z,8.05
2023-04-16T03:36:00.404Z,8.05
2023-04-16T03:37:03.240Z,8.03
2023-04-16T03:38:06.121Z,8.02
2023-04-16T03:39:09.131Z,8.02
2023-04-16T03:40:12.564Z,8.06
2023-04-16T03:41:15.504Z,8.05
2023-04-16T03:42:18.473Z,8.05
2023-04-16T03:43:21.340Z,8.06
2023-04-16T03:44:24.276Z,8.02
2023-04-16T03:45:27.116Z,8.06
2023-04-16T03:46:30.172Z,8.05
2023-04-16T03:47:33.059Z,8.05
2023-04-16T03:48:35.938Z,8.02
2023-04-16T03:49:38.772Z,8.03
2023-04-16T03:50:41.666Z,8.02
2023-04-16T03:51:44.535Z,8.02
2023-04-16T03:52:48.249Z,8.02
2023-04-16T03:53:51.128Z,7.99
2023-04-16T03:54:54.079Z,8.02
2023-04-16T03:55:56.970Z,7.99
2023-04-16T03:56:59.963Z,7.98
2023-04-16T03:58:04.545Z,8.02
2023-04-16T03:59:07.480Z,8.02
2023-04-16T04:00:10.682Z,7.99
2023-04-16T04:01:13.531Z,8.03
2023-04-16T04:02:16.474Z,8.05
2023-04-16T04:03:20.022Z,8.05
2023-04-16T04:04:23.254Z,8.02
2023-04-16T04:05:26.254Z,8.05
2023-04-16T04:06:29.074Z,8.03
2023-04-16T04:07:31.923Z,8.03
2023-04-16T04:08:37.008Z,8.03
2023-04-16T04:09:39.815Z,8.00
2023-04-16T04:10:42.610Z,7.98
2023-04-16T04:11:45.453Z,7.98
2023-04-16T04:12:48.267Z,7.96
2023-04-16T04:13:51.189Z,7.96
2023-04-16T04:14:54.237Z,7.96
2023-04-16T04:15:57.167Z,7.95
2023-04-16T04:17:00.003Z,7.95
2023-04-16T04:18:02.905Z,7.93
2023-04-16T04:19:05.790Z,7.92
2023-04-16T04:20:09.059Z,7.92
2023-04-16T04:21:12.163Z,7.89
2023-04-16T04:22:15.025Z,7.91
2023-04-16T04:23:17.894Z,7.88
2023-04-16T04:24:20.710Z,7.92
2023-04-16T04:25:23.663Z,7.93
2023-04-16T04:26:26.610Z,7.95
2023-04-16T04:27:29.497Z,7.98
2023-04-16T04:28:35.697Z,8.00
2023-04-16T04:29:38.633Z,8.00
2023-04-16T04:30:41.490Z,8.00
2023-04-16T04:31:44.360Z,8.02
2023-04-16T04:32:47.397Z,8.00
2023-04-16T04:33:50.262Z,8.02
2023-04-16T04:34:53.195Z,8.05
2023-04-16T04:35:57.038Z,8.05
2023-04-16T04:37:00.332Z,8.05
2023-04-16T04:38:04.180Z,8.06
2023-04-16T04:39:07.209Z,8.09
2023-04-16T04:40:10.965Z,8.10
2023-04-16T04:41:13.805Z,8.10
2023-04-16T04:42:19.462Z,8.12
2023-04-16T04:43:22.344Z,8.12
2023-04-16T04:44:25.165Z,8.16
2023-04-16T04:45:30.362Z,8.16
2023-04-16T04:46:34.747Z,8.19
2023-04-16T04:47:37.585Z,8.19
2023-04-16T04:48:40.479Z,8.20
2023-04-16T04:49:43.756Z,8.22
2023-04-16T04:50:47.509Z,8.22
2023-04-16T04:51:50.692Z,8.23
2023-04-16T04:52:53.524Z,8.19
2023-04-16T04:53:56.357Z,8.20
2023-04-16T04:54:59.197Z,8.14
2023-04-16T04:56:11.590Z,8.16
2023-04-16T04:57:15.482Z,8.16
2023-04-16T04:58:18.339Z,8.14
2023-04-16T04:59:22.254Z,8.16
2023-04-16T05:00:25.096Z,8.17
2023-04-16T05:01:27.971Z,8.13
2023-04-16T05:02:30.975Z,8.16
2023-04-16T05:03:34.049Z,8.19
2023-04-16T05:04:36.991Z,8.20
2023-04-16T05:05:42.911Z,8.25
2023-04-16T05:06:45.735Z,8.26
2023-04-16T05:07:48.578Z,8.28
2023-04-16T05:08:51.516Z,8.30
2023-04-16T05:09:54.773Z,8.34
2023-04-16T05:10:57.583Z,8.36
2023-04-16T05:12:00.565Z,8.33
2023-04-16T05:13:03.667Z,8.34
2023-04-16T05:14:06.566Z,8.37
2023-04-16T05:15:10.117Z,8.36
2023-04-16T05:16:13.007Z,8.40
2023-04-16T05:17:16.012Z,8.37
2023-04-16T05:18:18.831Z,8.37
2023-04-16T05:19:21.796Z,8.40
2023-04-16T05:20:28.095Z,8.39
2023-04-16T05:21:31.022Z,8.37
2023-04-16T05:22:34.162Z,8.40
2023-04-16T05:23:36.996Z,8.43
2023-04-16T05:24:39.899Z,8.41
2023-04-16T05:25:42.723Z,8.41
2023-04-16T05:26:45.590Z,8.44
2023-04-16T05:27:48.473Z,8.33
2023-04-16T05:28:51.364Z,8.34
2023-04-16T05:29:54.200Z,8.36
2023-04-16T05:30:57.150Z,8.37
2023-04-16T05:32:00.064Z,8.34
2023-04-16T05:33:02.947Z,8.33
2023-04-16T05:34:05.738Z,8.34
2023-04-16T05:35:08.936Z,8.39
2023-04-16T05:36:11.926Z,8.36
2023-04-16T05:37:14.784Z,8.37
2023-04-16T05:38:17.627Z,8.40
2023-04-16T05:39:21.165Z,8.44
2023-04-16T05:40:24.008Z,8.46
2023-04-16T05:41:27.054Z,8.44
2023-04-16T05:42:29.903Z,8.46
2023-04-16T05:43:33.040Z,8.50
2023-04-16T05:44:35.889Z,8.49
2023-04-16T05:45:42.272Z,8.54
2023-04-16T05:46:45.139Z,8.56
2023-04-16T05:47:48.333Z,8.54
2023-04-16T05:48:52.327Z,8.57
2023-04-16T05:49:55.147Z,8.51
2023-04-16T05:50:57.965Z,8.50
2023-04-16T05:52:00.993Z,8.50
2023-04-16T05:53:07.160Z,8.47
2023-04-16T05:54:10.023Z,8.47
2023-04-16T05:55:12.968Z,8.43
2023-04-16T05:56:15.788Z,8.37
2023-04-16T05:57:18.616Z,8.40
2023-04-16T05:58:21.513Z,8.40
2023-04-16T05:59:24.442Z,8.43
2023-04-16T06:00:28.470Z,8.43
2023-04-16T06:01:32.813Z,8.50
2023-04-16T06:02:37.279Z,8.50
2023-04-16T06:03:40.430Z,8.56
2023-04-16T06:04:43.328Z,8.56
2023-04-16T06:05:46.402Z,8.58
2023-04-16T06:06:49.334Z,8.58
2023-04-16T06:07:52.195Z,8.61
2023-04-16T06:08:55.040Z,8.65
2023-04-16T06:09:58.002Z,8.63
2023-04-16T06:11:00.904Z,8.63
2023-04-16T06:12:03.768Z,8.63
2023-04-16T06:13:06.791Z,8.60
2023-04-16T06:14:09.800Z,8.57
2023-04-16T06:15:12.897Z,8.60
2023-04-16T06:16:15.749Z,8.61
2023-04-16T06:17:18.666Z,8.64
2023-04-16T06:18:21.479Z,8.61
2023-04-16T06:19:24.410Z,8.63
2023-04-16T06:20:27.374Z,8.61
2023-04-16T06:21:30.478Z,8.67
2023-04-16T06:22:33.377Z,8.71
2023-04-16T06:23:36.244Z,8.67
2023-04-16T06:24:39.205Z,8.67
2023-04-16T06:25:42.054Z,8.65
2023-04-16T06:26:44.964Z,8.67
2023-04-16T06:27:47.820Z,8.74
2023-04-16T06:28:51.518Z,8.77
2023-04-16T06:29:54.421Z,8.79
2023-04-16T06:30:57.451Z,8.82
2023-04-16T06:32:00.424Z,8.84
2023-04-16T06:33:03.343Z,8.85
2023-04-16T06:34:06.235Z,8.89
2023-04-16T06:35:09.525Z,8.97
2023-04-16T06:36:12.946Z,8.99
2023-04-16T06:37:16.277Z,9.04
2023-04-16T06:38:19.928Z,9.09
2023-04-16T06:39:23.155Z,9.14
2023-04-16T06:40:26.117Z,9.20
2023-04-16T06:41:29.944Z,9.25
2023-04-16T06:42:32.868Z,9.32
2023-04-16T06:43:36.112Z,9.36
2023-04-16T06:44:39.215Z,9.40
2023-04-16T06:45:43.110Z,9.44
2023-04-16T06:46:45.984Z,9.49
2023-04-16T06:47:49.364Z,9.53
2023-04-16T06:48:52.212Z,9.57
2023-04-16T06:49:55.067Z,9.63
2023-04-16T06:50:58.068Z,9.66
2023-04-16T06:52:00.965Z,9.66
2023-04-16T06:53:03.810Z,9.70
2023-04-16T06:54:06.719Z,9.71
2023-04-16T06:55:11.131Z,9.78
2023-04-16T06:56:14.032Z,9.86
2023-04-16T06:57:17.573Z,9.93
2023-04-16T06:58:20.401Z,9.97
2023-04-16T06:59:23.258Z,10.08
2023-04-16T07:00:26.123Z,10.15
2023-04-16T07:01:29.982Z,10.22
2023-04-16T07:02:32.997Z,10.29
2023-04-16T07:03:36.169Z,10.32
2023-04-16T07:04:39.110Z,10.39
2023-04-16T07:05:41.939Z,10.46
2023-04-16T07:06:44.822Z,10.49
2023-04-16T07:07:47.684Z,10.53
2023-04-16T07:08:50.684Z,10.60
2023-04-16T07:09:53.664Z,10.65
2023-04-16T07:10:56.599Z,10.67
2023-04-16T07:11:59.686Z,10.70
2023-04-16T07:13:03.007Z,10.80
2023-04-16T07:14:06.566Z,10.80
2023-04-16T07:15:11.908Z,10.83
2023-04-16T07:16:14.822Z,10.84
2023-04-16T07:17:17.815Z,10.87
2023-04-16T07:18:20.892Z,10.89
2023-04-16T07:19:24.055Z,10.96
2023-04-16T07:20:26.995Z,11.04
2023-04-16T07:21:29.861Z,11.13
2023-04-16T07:22:32.696Z,11.21
2023-04-16T07:23:35.813Z,11.30
2023-04-16T07:24:38.709Z,11.36
2023-04-16T07:25:43.139Z,11.42
2023-04-16T07:26:45.994Z,11.51
2023-04-16T07:27:48.868Z,11.59
2023-04-16T07:28:51.746Z,11.71
2023-04-16T07:29:56.036Z,11.82
2023-04-16T07:30:59.058Z,11.90
2023-04-16T07:32:02.062Z,12.00
2023-04-16T07:33:05.546Z,12.12
2023-04-16T07:34:08.500Z,12.17
2023-04-16T07:35:11.477Z,12.26
2023-04-16T07:36:14.437Z,12.40
2023-04-16T07:37:17.300Z,12.50
2023-04-16T07:38:20.173Z,12.57
2023-04-16T07:39:22.988Z,12.69
2023-04-16T07:40:26.045Z,12.74
2023-04-16T07:41:30.874Z,12.84
2023-04-16T07:42:33.736Z,12.91
2023-04-16T07:43:36.858Z,12.98
2023-04-16T07:44:40.713Z,13.08
2023-04-16T07:45:43.668Z,13.12
2023-04-16T07:46:47.715Z,13.17
2023-04-16T07:47:50.799Z,13.24
2023-04-16T07:48:53.681Z,13.29
2023-04-16T07:49:56.594Z,13.36
2023-04-16T07:50:59.469Z,13.39
2023-04-16T07:52:02.375Z,13.47
2023-04-16T07:53:05.395Z,13.51
2023-04-16T07:54:08.263Z,13.53
2023-04-16T07:55:11.290Z,13.57
2023-04-16T07:56:14.189Z,13.60
2023-04-16T07:57:17.775Z,13.64
2023-04-16T07:58:20.628Z,13.66
2023-04-16T07:59:24.545Z,13.73
2023-04-16T08:00:27.773Z,13.77
2023-04-16T08:01:30.809Z,13.81
2023-04-16T08:02:34.421Z,13.87
2023-04-16T08:03:37.928Z,13.88
2023-04-16T08:04:41.341Z,13.95
2023-04-16T08:05:44.374Z,13.98
2023-04-16T08:06:47.234Z,14.04
2023-04-16T08:07:50.105Z,14.09
2023-04-16T08:08:52.924Z,14.15
2023-04-16T08:09:56.232Z,14.19
2023-04-16T08:10:59.425Z,14.24
2023-04-16T08:12:02.690Z,14.24
2023-04-16T08:13:07.958Z,14.25
2023-04-16T08:14:10.841Z,14.22
2023-04-16T08:15:13.880Z,14.21
2023-04-16T08:16:16.833Z,14.21
2023-04-16T08:17:19.863Z,14.25
2023-04-16T08:18:22.739Z,14.22
2023-04-16T08:19:25.672Z,14.26
2023-04-16T08:20:28.686Z,14.28
2023-04-16T08:21:32.962Z,14.29
2023-04-16T08:22:35.895Z,14.28
2023-04-16T08:23:39.297Z,14.26
2023-04-16T08:24:42.408Z,14.24
2023-04-16T08:25:45.245Z,14.26
2023-04-16T08:26:48.530Z,14.29
2023-04-16T08:27:51.958Z,14.30
2023-04-16T08:28:55.065Z,14.25
2023-04-16T08:29:57.949Z,14.21
2023-04-16T08:31:00.832Z,14.24
2023-04-16T08:32:03.863Z,14.25
2023-04-16T08:33:07.182Z,14.29
2023-04-16T08:34:12.627Z,14.35
2023-04-16T08:35:15.546Z,14.36
2023-04-16T08:36:18.382Z,14.37
2023-04-16T08:37:21.253Z,14.37
2023-04-16T08:38:24.125Z,14.36
2023-04-16T08:39:27.327Z,14.39
2023-04-16T08:40:31.334Z,14.42
2023-04-16T08:41:38.110Z,14.46
2023-04-16T08:42:45.469Z,14.45
2023-04-16T08:43:52.217Z,14.43
2023-04-16T08:45:30.714Z,14.45
2023-04-16T08:46:38.072Z,14.47
2023-04-16T08:47:42.697Z,14.47
2023-04-16T08:48:50.686Z,14.49
2023-04-16T08:49:58.502Z,14.50
2023-04-16T08:51:02.983Z,14.57
2023-04-16T08:52:08.675Z,14.53
2023-04-16T08:53:15.382Z,14.56
2023-04-16T08:54:33.529Z,14.56
2023-04-16T08:55:50.295Z,14.57
2023-04-16T08:56:53.475Z,14.63
2023-04-16T08:57:59.741Z,14.64
2023-04-16T08:59:06.478Z,14.64
2023-04-16T09:00:11.082Z,14.63
2023-04-16T09:01:14.391Z,14.62
2023-04-16T09:02:17.601Z,14.67
2023-04-16T09:03:23.747Z,14.67
2023-04-16T09:04:30.573Z,14.72
2023-04-16T09:05:34.937Z,14.74
2023-04-16T09:06:38.832Z,14.76
2023-04-16T09:07:43.427Z,14.79
2023-04-16T09:08:49.612Z,14.88
2023-04-16T09:09:54.629Z,14.93
2023-04-16T09:11:00.291Z,14.98
2023-04-16T09:12:03.732Z,15.07
2023-04-16T09:13:06.800Z,15.15
2023-04-16T09:14:12.467Z,15.18
2023-04-16T09:15:15.707Z,15.24
2023-04-16T09:16:18.772Z,15.28
2023-04-16T09:17:21.830Z,15.34
2023-04-16T09:18:25.207Z,15.38
2023-04-16T09:19:28.438Z,15.38
2023-04-16T09:20:31.321Z,15.41
2023-04-16T09:21:34.332Z,15.45
2023-04-16T09:22:38.230Z,15.48
2023-04-16T09:23:41.875Z,15.51
2023-04-16T09:24:44.724Z,15.51
2023-04-16T09:25:47.799Z,15.49
2023-04-16T09:26:53.875Z,15.49
2023-04-16T09:27:56.876Z,15.51
2023-04-16T09:28:59.769Z,15.51
2023-04-16T09:30:03.740Z,15.55
2023-04-16T09:31:24.746Z,15.55
2023-04-16T09:32:29.376Z,15.55
2023-04-16T09:33:34.429Z,15.61
2023-04-16T09:35:01.953Z,15.62
2023-04-16T09:36:04.988Z,15.69
2023-04-16T09:37:32.815Z,15.74
2023-04-16T09:38:52.596Z,15.82
2023-04-16T09:39:58.427Z,15.87
2023-04-16T09:41:09.400Z,15.94
2023-04-16T09:42:13.661Z,15.97
2023-04-16T09:43:19.964Z,16.04
2023-04-16T09:44:35.805Z,16.09
2023-04-16T09:45:56.440Z,16.10
2023-04-16T09:47:08.106Z,16.10
2023-04-16T09:48:10.957Z,16.13
2023-04-16T09:49:18.027Z,16.13
2023-04-16T09:50:21.714Z,16.14
2023-04-16T09:51:24.745Z,16.14
2023-04-16T09:52:27.584Z,16.10
2023-04-16T09:53:32.834Z,16.04
2023-04-16T09:54:35.801Z,16.03
2023-04-16T09:55:38.673Z,16.01
2023-04-16T09:56:43.408Z,16.03
2023-04-16T09:57:46.413Z,15.97
2023-04-16T09:58:49.360Z,15.90
2023-04-16T10:00:11.820Z,15.89
2023-04-16T10:01:14.764Z,15.85
2023-04-16T10:02:18.655Z,15.87
2023-04-16T10:03:33.252Z,15.93
2023-04-16T10:04:49.041Z,15.99
2023-04-16T10:05:55.006Z,16.03
2023-04-16T10:07:07.582Z,16.10
2023-04-16T10:08:14.921Z,16.13
2023-04-16T10:09:17.825Z,16.13
2023-04-16T10:10:21.056Z,16.18
2023-04-16T10:11:24.763Z,16.20
2023-04-16T10:12:28.605Z,16.18
2023-04-16T10:13:32.516Z,16.18
2023-04-16T10:14:36.151Z,16.20
2023-04-16T10:15:40.077Z,16.22
2023-04-16T10:16:43.248Z,16.20
2023-04-16T10:17:47.028Z,16.20
2023-04-16T10:18:50.055Z,16.16
2023-04-16T10:19:53.430Z,16.17
2023-04-16T10:20:56.817Z,16.18
2023-04-16T10:22:00.339Z,16.21
2023-04-16T10:23:03.523Z,16.24
2023-04-16T10:24:06.893Z,16.25
2023-04-16T10:25:11.467Z,16.28
2023-04-16T10:26:14.955Z,16.28
2023-04-16T10:27:18.437Z,16.27
2023-04-16T10:28:22.409Z,16.25
2023-04-16T10:29:27.357Z,16.18
2023-04-16T10:30:30.688Z,16.18
2023-04-16T10:31:33.988Z,16.16
2023-04-16T10:32:38.224Z,16.14
2023-04-16T10:33:43.138Z,16.17
2023-04-16T10:34:46.222Z,16.18
2023-04-16T10:35:57.863Z,16.20
2023-04-16T10:37:09.813Z,16.22
2023-04-16T10:38:29.202Z,16.27
2023-04-16T10:39:32.076Z,16.30
2023-04-16T10:40:36.708Z,16.28
2023-04-16T10:41:40.258Z,16.30
2023-04-16T10:42:43.098Z,16.31
2023-04-16T10:43:47.931Z,16.27
2023-04-16T10:44:50.852Z,16.30
2023-04-16T10:45:55.424Z,16.31
2023-04-16T10:46:58.374Z,16.31
2023-04-16T10:48:05.473Z,16.34
2023-04-16T10:49:16.457Z,16.37
2023-04-16T10:50:19.386Z,16.34
2023-04-16T10:51:30.064Z,16.34
2023-04-16T10:52:32.891Z,16.31
2023-04-16T10:53:38.521Z,16.30
2023-04-16T10:54:42.465Z,16.32
2023-04-16T10:56:01.677Z,16.28
2023-04-16T10:57:07.331Z,16.22
2023-04-16T10:58:30.146Z,16.25
2023-04-16T10:59:37.481Z,16.27
2023-04-16T11:00:53.507Z,16.27
2023-04-16T11:01:58.089Z,16.27
2023-04-16T11:03:01.224Z,16.28
2023-04-16T11:04:22.511Z,16.28
2023-04-16T11:05:25.893Z,16.27
2023-04-16T11:06:29.966Z,16.34
2023-04-16T11:07:38.556Z,16.40
2023-04-16T11:08:54.658Z,16.44
2023-04-16T11:10:04.384Z,16.47
2023-04-16T11:11:07.764Z,16.52
2023-04-16T11:12:14.391Z,16.59
2023-04-16T11:13:18.209Z,16.67
2023-04-16T11:14:21.486Z,16.68
2023-04-16T11:15:25.229Z,16.75
2023-04-16T11:16:28.582Z,16.72
2023-04-16T11:17:38.022Z,16.73
2023-04-16T11:18:50.715Z,16.78
2023-04-16T11:19:54.686Z,16.80
2023-04-16T11:20:57.812Z,16.85
2023-04-16T11:22:01.359Z,16.92
2023-04-16T11:23:04.255Z,16.92
2023-04-16T11:24:07.438Z,16.99
2023-04-16T11:25:10.829Z,17.02
2023-04-16T11:26:27.679Z,17.07
2023-04-16T11:27:32.638Z,17.09
2023-04-16T11:28:37.196Z,17.12
2023-04-16T11:29:40.014Z,17.15
2023-04-16T11:30:42.972Z,17.17
2023-04-16T11:31:54.995Z,17.20
2023-04-16T11:32:58.176Z,17.23
2023-04-16T11:34:02.254Z,17.26
2023-04-16T11:35:14.249Z,17.26
2023-04-16T11:36:17.251Z,17.24
2023-04-16T11:37:35.286Z,17.24
2023-04-16T11:38:39.099Z,17.26
2023-04-16T11:39:54.433Z,17.28
2023-04-16T11:40:57.465Z,17.33
2023-04-16T11:42:00.328Z,17.34
2023-04-16T11:43:23.608Z,17.33
2023-04-16T11:44:29.210Z,17.43
2023-04-16T11:45:32.421Z,17.43
2023-04-16T11:46:42.604Z,17.48
2023-04-16T11:47:53.195Z,17.54
2023-04-16T11:48:59.586Z,17.58
2023-04-16T11:50:23.073Z,17.57
2023-04-16T11:51:26.124Z,17.61
2023-04-16T11:52:34.025Z,17.60
2023-04-16T11:53:38.139Z,17.63
2023-04-16T11:54:40.998Z,17.61
2023-04-16T11:55:47.149Z,17.63
2023-04-16T11:56:53.140Z,17.61
2023-04-16T11:57:56.060Z,17.63
2023-04-16T11:59:12.562Z,17.63
2023-04-16T12:00:16.570Z,17.64
2023-04-16T12:01:22.662Z,17.65
2023-04-16T12:02:41.627Z,17.60
2023-04-16T12:03:50.975Z,17.54
2023-04-16T12:04:54.262Z,17.53
2023-04-16T12:06:09.181Z,17.51
2023-04-16T12:07:16.173Z,17.51
2023-04-16T12:08:32.069Z,17.54
2023-04-16T12:09:38.670Z,17.53
2023-04-16T12:10:56.661Z,17.55
2023-04-16T12:11:59.585Z,17.58
2023-04-16T12:13:16.973Z,17.58
2023-04-16T12:14:20.520Z,17.60
2023-04-16T12:15:23.393Z,17.54
2023-04-16T12:16:27.512Z,17.57
2023-04-16T12:17:32.417Z,17.58
2023-04-16T12:18:35.276Z,17.63
2023-04-16T12:19:52.953Z,17.63
2023-04-16T12:20:55.990Z,17.64
2023-04-16T12:22:02.309Z,17.64
2023-04-16T12:23:05.225Z,17.68
2023-04-16T12:24:09.266Z,17.64
2023-04-16T12:25:13.608Z,17.67
2023-04-16T12:26:16.816Z,17.70
2023-04-16T12:27:19.638Z,17.68
2023-04-16T12:28:34.616Z,17.71
2023-04-16T12:29:39.958Z,17.68
2023-04-16T12:30:54.437Z,17.65
2023-04-16T12:31:57.524Z,17.61
2023-04-16T12:33:19.814Z,17.57
2023-04-16T12:34:27.742Z,17.60
2023-04-16T12:35:46.476Z,17.63
2023-04-16T12:36:50.869Z,17.60
2023-04-16T12:37:53.704Z,17.61
2023-04-16T12:38:56.687Z,17.60
2023-04-16T12:39:59.557Z,17.58
2023-04-16T12:41:03.474Z,17.57
2023-04-16T12:42:07.675Z,17.58
2023-04-16T12:43:11.780Z,17.55
2023-04-16T12:44:19.190Z,17.54
2023-04-16T12:45:22.122Z,17.53
2023-04-16T12:46:25.047Z,17.48
2023-04-16T12:47:28.041Z,17.44
2023-04-16T12:48:30.873Z,17.37
2023-04-16T12:49:34.027Z,17.30
2023-04-16T12:50:37.061Z,17.27
2023-04-16T12:51:40.563Z,17.22
2023-04-16T12:52:43.464Z,17.17
2023-04-16T12:53:46.340Z,17.16
2023-04-16T12:54:49.207Z,17.16
2023-04-16T12:55:52.228Z,17.12
2023-04-16T12:56:55.064Z,17.12
2023-04-16T12:57:57.986Z,17.16
2023-04-16T12:59:00.971Z,17.12
2023-04-16T13:00:03.897Z,17.13
2023-04-16T13:01:06.930Z,17.13
2023-04-16T13:02:09.912Z,17.12
2023-04-16T13:03:13.027Z,17.19
2023-04-16T13:04:16.245Z,17.20
2023-04-16T13:05:20.473Z,17.26
2023-04-16T13:06:23.534Z,17.28
2023-04-16T13:07:28.014Z,17.34
2023-04-16T13:08:31.125Z,17.41
2023-04-16T13:09:33.979Z,17.44
2023-04-16T13:10:37.076Z,17.50
2023-04-16T13:11:40.006Z,17.51
2023-04-16T13:12:42.821Z,17.55
2023-04-16T13:13:48.816Z,17.65
2023-04-16T13:14:51.761Z,17.73
2023-04-16T13:15:54.907Z,17.73
2023-04-16T13:16:57.765Z,17.73
2023-04-16T13:18:00.682Z,17.82
2023-04-16T13:19:03.543Z,17.88
2023-04-16T13:20:06.940Z,17.95
2023-04-16T13:21:09.848Z,17.95
2023-04-16T13:22:12.904Z,18.04
2023-04-16T13:23:15.832Z,18.12
2023-04-16T13:24:18.838Z,18.19
2023-04-16T13:25:21.858Z,18.26
2023-04-16T13:26:24.726Z,18.33
2023-04-16T13:27:27.929Z,18.37
2023-04-16T13:28:30.903Z,18.43
2023-04-16T13:29:33.797Z,18.53
2023-04-16T13:30:36.848Z,18.59
2023-04-16T13:31:39.995Z,18.64
2023-04-16T13:32:42.892Z,18.64
2023-04-16T13:33:45.825Z,18.70
2023-04-16T13:34:48.796Z,18.73
2023-04-16T13:35:51.913Z,18.80
2023-04-16T13:36:54.769Z,18.84
2023-04-16T13:37:57.663Z,18.87
2023-04-16T13:39:00.986Z,18.94
2023-04-16T13:40:03.834Z,19.01
2023-04-16T13:41:07.381Z,19.11
2023-04-16T13:42:10.339Z,19.15
2023-04-16T13:43:14.945Z,19.12
2023-04-16T13:44:17.780Z,19.11
2023-04-16T13:45:21.914Z,19.08
2023-04-16T13:46:24.965Z,19.05
2023-04-16T13:47:27.964Z,19.01
2023-04-16T13:48:30.917Z,19.05
2023-04-16T13:49:36.331Z,19.04
2023-04-16T13:50:39.312Z,19.01
2023-04-16T13:51:45.627Z,19.04
2023-04-16T13:52:48.651Z,19.00
2023-04-16T13:53:51.678Z,18.95
2023-04-16T13:54:54.508Z,18.95
2023-04-16T13:55:57.415Z,18.92
2023-04-16T13:57:00.278Z,18.91
2023-04-16T13:58:03.320Z,18.94
2023-04-16T13:59:06.224Z,18.97
2023-04-16T14:00:13.271Z,18.92
2023-04-16T14:01:16.456Z,18.95
2023-04-16T14:02:19.511Z,18.95
2023-04-16T14:03:22.984Z,18.98